Latest Weather Observations for Kingfish B

IDV60801

Issued at 4:05 pm EST Sunday 31 August 2014 (issued every 30 minutes, with the page automatically refreshed every 10 minutes)

About weather observations | Map of weather stations | Latest weather observations for VIC | Other Formats
Station Details ID: 400139 Name: KINGFISH B (PLATFORM) Lat: -38.60 Lon: 148.19 Height: 31.4 m
Data from the previous 72 hours. | See also: Recent months for locations in Victoria
Date/Time
EST
Temp
°C
App
Temp
°C
Dew
Point
Rel
Hum
%
Delta-T
°C
Wind Press
QNH
hPa
Press
MSL
hPa
Rain
since 9 am
mm
Dir
 
Spd
km/h
Gust
km/h
Spd
kts
Gust
kts
31/02:50pm 14.7 13.0 9.8 72 2.5 NNE 9 9 5 5 1015.3 - -
31/02:40pm 14.4 13.0 9.7 73 2.4 NNE 7 9 4 5 1015.5 - -
31/02:30pm 14.3 13.2 9.8 74 2.3 NNE 6 7 3 4 1015.5 - -
31/02:20pm 14.3 13.6 9.9 75 2.3 NNE 4 6 2 3 1015.6 - -
31/02:10pm 14.2 13.5 10.0 76 2.2 NNE 4 6 2 3 1015.6 - -
31/02:00pm 14.2 13.1 10.0 76 2.2 NNE 6 7 3 4 1015.7 - -
31/01:50pm 14.3 13.2 10.0 75 2.2 NNE 6 7 3 4 1015.8 - -
31/01:40pm 14.3 13.0 10.0 75 2.2 NNE 7 9 4 5 1015.8 - -
31/01:30pm 14.3 13.0 9.8 74 2.3 NNE 7 9 4 5 1015.8 - -
31/01:20pm 14.2 12.8 9.7 74 2.3 NNE 7 9 4 5 1015.8 - -
31/01:10pm 14.2 13.1 9.8 75 2.3 NNE 6 7 3 4 1016.0 - -
31/01:00pm 14.2 13.1 9.9 75 2.2 NNE 6 7 3 4 1016.2 - -
31/12:50pm 14.2 13.1 10.0 76 2.2 NNE 6 7 3 4 1016.4 - -
31/12:40pm 14.1 13.4 10.0 76 2.1 NNE 4 6 2 3 1016.4 - -
31/12:30pm 14.0 13.3 9.9 76 2.1 NNE 4 7 2 4 1016.6 - -
31/12:20pm 14.0 13.3 9.9 76 2.1 NNE 4 9 2 5 1016.7 - -
31/12:10pm 14.0 13.3 9.9 76 2.1 N 4 7 2 4 1016.9 - -
31/12:00pm 14.1 13.4 10.0 76 2.1 N 4 9 2 5 1017.0 - -
31/11:50am 14.3 13.6 10.1 76 2.2 N 4 9 2 5 1017.1 - -
31/11:30am 14.3 14.0 10.0 75 2.2 N 2 7 1 4 1017.5 - -
31/11:20am 14.5 13.8 10.1 75 2.3 NNW 4 7 2 4 1017.7 - -
31/11:10am 14.5 13.8 9.9 74 2.4 NNW 4 9 2 5 1017.8 - -
31/11:00am 14.5 13.7 9.5 72 2.6 NNW 4 9 2 5 1018.0 - -
31/10:50am 14.3 13.4 9.2 71 2.6 NNW 4 9 2 5 1018.1 - -
31/10:40am 14.3 13.4 9.2 71 2.6 N 4 9 2 5 1018.2 - -
31/10:30am 14.4 13.6 9.5 72 2.5 N 4 7 2 4 1018.4 - -
31/10:20am 14.5 13.8 10.1 75 2.3 N 4 9 2 5 1018.5 - -
31/10:10am 14.7 14.1 10.4 75 2.3 N 4 9 2 5 1018.6 - -
31/10:00am 14.9 14.7 10.6 75 2.3 NNW 2 7 1 4 1018.7 - -
31/09:50am 14.8 14.2 10.5 75 2.3 NW 4 6 2 3 1018.9 - -
31/09:40am 14.9 14.4 10.7 76 2.2 NW 4 6 2 3 1019.0 - -
31/09:30am 14.9 14.8 10.8 76 2.2 NW 2 6 1 3 1019.1 - -
31/09:20am 14.8 13.9 10.6 76 2.2 NW 6 9 3 5 1019.1 - -
31/09:10am 15.0 14.1 10.6 75 2.3 NW 6 7 3 4 1019.2 - -
31/09:00am 15.1 14.2 10.7 75 2.3 NW 6 9 3 5 1019.2 - -
31/08:50am 15.0 13.9 10.7 75 2.3 NW 7 9 4 5 1019.3 - -
31/08:40am 15.0 13.9 10.7 75 2.3 NW 7 9 4 5 1019.4 - -
31/08:30am 15.3 14.4 10.8 74 2.4 NW 6 9 3 5 1019.5 - -
31/08:20am 15.4 14.4 10.9 74 2.4 NW 7 9 4 5 1019.6 - -
31/08:10am 15.4 14.3 10.8 74 2.4 NW 7 9 4 5 1019.7 - -
31/08:00am 15.4 14.3 10.8 74 2.4 NNW 7 9 4 5 1019.7 - -
31/07:50am 15.3 14.2 10.8 74 2.4 NNW 7 11 4 6 1019.8 - -
31/07:40am 14.8 13.6 10.4 75 2.3 NNW 7 9 4 5 1019.9 - -
31/07:30am 14.5 13.5 10.3 76 2.2 NNW 6 11 3 6 1019.8 - -
31/07:20am 14.4 13.5 10.5 77 2.0 N 6 9 3 5 1019.8 - -
31/07:10am 14.4 13.5 10.7 78 1.9 N 6 11 3 6 1019.8 - -
31/07:00am 14.3 13.3 11.0 80 1.7 N 7 13 4 7 1019.7 - -
31/06:50am 14.2 12.9 11.2 82 1.6 N 9 13 5 7 1019.6 - -
31/06:40am 14.1 12.8 11.3 83 1.5 N 9 13 5 7 1019.6 - -
31/06:30am 14.0 12.7 11.4 84 1.4 N 9 11 5 6 1019.6 - -
31/06:10am 13.9 12.6 11.3 84 1.4 N 9 11 5 6 1019.5 - -
31/06:00am 13.8 12.5 11.2 84 1.4 N 9 13 5 7 1019.5 - -
31/05:50am 13.8 12.4 11.0 83 1.5 N 9 13 5 7 1019.5 - -
31/05:40am 14.0 12.2 10.9 81 1.6 N 11 15 6 8 1019.4 - -
31/05:30am 14.2 11.6 10.8 80 1.8 NNE 15 20 8 11 1019.3 - -
31/05:20am 14.2 10.9 10.9 80 1.7 NNE 19 22 10 12 1019.3 - -
31/05:10am 14.2 10.7 10.9 80 1.7 NNE 20 24 11 13 1019.2 - -
31/05:00am 14.2 10.8 11.1 81 1.6 NNE 20 22 11 12 1019.2 - -
31/04:50am 14.3 11.1 11.2 81 1.6 NNE 19 22 10 12 1019.2 - -
31/04:40am 14.3 11.1 11.3 82 1.6 NNE 19 22 10 12 1019.2 - -
31/04:30am 14.3 10.9 11.3 82 1.6 NNE 20 24 11 13 1019.1 - -
31/04:20am 14.3 11.1 11.3 82 1.6 NNE 19 22 10 12 1019.2 - -
31/04:10am 14.4 11.2 11.4 82 1.6 NNE 19 22 10 12 1019.3 - -
31/04:00am 14.3 10.9 11.3 82 1.6 NNE 20 22 11 12 1019.2 - -
31/03:50am 14.4 11.2 11.4 82 1.6 NNE 19 22 10 12 1019.3 - -
31/03:40am 14.4 11.2 11.4 82 1.6 NNE 19 20 10 11 1019.3 - -
31/03:30am 14.4 11.2 11.3 81 1.7 NE 19 22 10 12 1019.3 - -
31/03:20am 14.4 11.2 11.2 81 1.7 NE 19 20 10 11 1019.3 - -
31/03:10am 14.5 11.3 11.2 80 1.8 NNE 19 22 10 12 1019.3 - -
31/03:00am 14.5 11.1 11.2 80 1.8 NE 20 24 11 13 1019.3 - -
31/02:50am 14.5 11.1 11.2 80 1.8 NNE 20 24 11 13 1019.4 - -
31/02:40am 14.6 11.4 11.2 80 1.8 NNE 19 22 10 12 1019.4 - -
31/02:30am 14.6 11.2 11.2 80 1.8 NE 20 22 11 12 1019.5 - -
31/02:20am 14.6 11.4 11.2 80 1.8 NNE 19 22 10 12 1019.6 - -
31/02:10am 14.7 11.5 11.2 79 1.9 NNE 19 22 10 12 1019.7 - -
31/02:00am 14.6 11.4 11.2 80 1.8 NNE 19 22 10 12 1019.8 - -
31/01:50am 14.7 11.5 11.3 80 1.8 NNE 19 22 10 12 1019.9 - -
31/01:40am 14.6 11.4 11.3 80 1.8 NNE 19 22 10 12 1020.0 - -
31/01:20am 14.8 12.3 11.2 79 1.9 NNE 15 19 8 10 1020.4 - -
31/01:10am 14.6 12.1 11.1 79 1.9 NE 15 17 8 9 1020.5 - -
31/01:00am 14.5 12.0 11.0 79 1.9 NE 15 17 8 9 1020.6 - -
31/12:50am 14.6 12.5 11.1 79 1.9 NE 13 15 7 8 1020.8 - -
31/12:40am 14.5 12.0 11.1 80 1.8 NE 15 15 8 8 1020.9 - -
31/12:30am 14.5 12.4 11.0 79 1.9 NE 13 15 7 8 1021.1 - -
31/12:20am 14.6 12.8 10.9 78 2.0 NE 11 13 6 7 1021.2 - -
31/12:10am 14.5 12.7 10.8 78 2.0 NE 11 13 6 7 1021.5 - -
31/12:00am 14.5 12.7 10.9 79 1.9 NE 11 13 6 7 1021.5 - -
 
Date/Time
EST
Temp
°C
App
Temp
°C
Dew
Point
Rel
Hum
%
Delta-T
°C
Wind Press
QNH
hPa
Press
MSL
hPa
Rain
since 9 am
mm
Dir
 
Spd
km/h
Gust
km/h
Spd
kts
Gust
kts
30/11:50pm 14.6 12.8 10.8 78 2.0 NE 11 13 6 7 1021.7 - -
30/11:40pm 14.7 12.1 10.6 76 2.2 NE 15 17 8 9 1021.8 - -
30/11:30pm 14.6 11.6 10.6 77 2.1 NE 17 20 9 11 1021.9 - -
30/11:20pm 14.6 11.6 10.5 76 2.2 NE 17 19 9 10 1022.0 - -
30/11:10pm 14.7 11.7 10.6 76 2.2 NE 17 20 9 11 1022.0 - -
30/11:00pm 14.7 11.3 10.7 77 2.1 NE 19 22 10 12 1022.1 - -
30/10:50pm 14.6 11.1 10.8 78 2.0 NE 20 22 11 12 1022.1 - -
30/10:40pm 14.7 11.4 10.9 78 2.0 NE 19 22 10 12 1022.2 - -
30/10:30pm 14.7 11.1 10.6 76 2.2 NE 20 24 11 13 1022.2 - -
30/10:20pm 14.7 10.7 10.3 75 2.3 NE 22 26 12 14 1022.2 - -
30/10:10pm 14.6 10.3 10.7 77 2.1 NE 24 26 13 14 1022.2 - -
30/10:00pm 14.7 10.8 10.7 77 2.1 NE 22 28 12 15 1022.3 - -
30/09:50pm 14.7 10.7 10.3 75 2.3 NE 22 26 12 14 1022.4 - -
30/09:30pm 14.7 11.0 10.3 75 2.3 NE 20 26 11 14 1022.7 - -
30/09:20pm 14.7 11.0 10.2 74 2.4 NE 20 24 11 13 1022.8 - -
30/09:10pm 14.9 11.3 10.4 74 2.4 NE 20 28 11 15 1022.8 - -
30/09:00pm 14.7 11.2 10.3 75 2.3 NE 19 24 10 13 1022.8 - -
30/08:50pm 14.7 11.2 10.2 74 2.4 NE 19 24 10 13 1022.9 - -
30/08:40pm 14.7 11.2 10.2 74 2.4 NE 19 24 10 13 1023.0 - -
30/08:30pm 14.7 11.2 10.1 74 2.4 NE 19 26 10 14 1023.0 - -
30/08:20pm 14.8 11.1 10.0 73 2.5 NE 20 26 11 14 1023.1 - -
30/08:10pm 14.7 10.9 9.9 73 2.5 NE 20 26 11 14 1023.1 - -
30/08:00pm 14.7 11.1 9.8 72 2.5 ENE 19 28 10 15 1023.2 - -
30/07:50pm 14.7 10.9 9.7 72 2.6 ENE 20 26 11 14 1023.1 - -
30/07:40pm 14.7 11.1 9.7 72 2.6 ENE 19 24 10 13 1023.1 - -
30/07:30pm 14.7 11.1 9.7 72 2.6 ENE 19 24 10 13 1023.2 - -
30/07:20pm 14.6 10.8 9.8 73 2.5 NE 20 28 11 15 1023.2 - -
30/07:10pm 14.6 11.0 9.9 73 2.4 ENE 19 30 10 16 1023.2 - -
30/07:00pm 14.6 10.0 9.7 72 2.5 ENE 24 32 13 17 1023.3 - -
30/06:50pm 14.6 10.4 9.7 72 2.5 ENE 22 30 12 16 1023.3 - -
30/06:40pm 14.6 10.0 9.5 71 2.6 ENE 24 30 13 16 1023.4 - -
30/06:30pm 14.6 9.9 9.4 71 2.7 ENE 24 32 13 17 1023.4 - -
30/06:20pm 14.6 9.5 9.3 70 2.7 ENE 26 32 14 17 1023.4 - -
30/06:10pm 14.6 10.3 9.4 71 2.7 ENE 22 30 12 16 1023.4 - -
30/06:00pm 14.6 10.2 9.1 69 2.8 ENE 22 32 12 17 1023.4 - -
30/05:50pm 14.7 10.3 9.1 69 2.9 ENE 22 30 12 16 1023.4 - -
30/05:40pm 14.7 10.3 9.0 68 2.9 ENE 22 30 12 16 1023.4 - -
30/05:30pm 14.7 10.2 8.7 67 3.0 ENE 22 30 12 16 1023.5 - -
30/05:20pm 14.7 9.9 8.9 68 3.0 ENE 24 32 13 17 1023.5 - -
30/05:10pm 14.7 9.9 8.7 67 3.0 ENE 24 32 13 17 1023.6 - -
30/05:00pm 14.7 9.9 8.7 67 3.0 ENE 24 30 13 16 1023.6 - -
30/04:50pm 14.8 9.9 8.6 66 3.1 ENE 24 30 13 16 1023.6 - -
30/04:40pm 14.7 9.4 8.6 67 3.1 ENE 26 30 14 16 1023.7 - -
30/04:30pm 14.7 9.1 8.8 68 3.0 ENE 28 32 15 17 1023.7 - -
30/04:20pm 14.7 9.8 8.6 67 3.1 ENE 24 28 13 15 1023.7 - -
30/04:10pm 14.7 9.8 8.4 66 3.2 ENE 24 28 13 15 1023.7 - -
30/04:00pm 14.7 10.2 8.7 67 3.0 ENE 22 30 12 16 1023.7 - -
30/03:50pm 14.8 10.3 8.6 66 3.1 ENE 22 26 12 14 1023.8 - -
30/03:30pm 14.7 10.5 8.2 65 3.3 ENE 20 24 11 13 1023.8 - -
30/03:20pm 14.8 10.6 8.2 64 3.3 ENE 20 26 11 14 1023.9 - -
30/03:10pm 14.8 10.8 8.4 65 3.2 ENE 19 24 10 13 1024.0 - -
30/03:00pm 14.8 10.8 8.3 65 3.3 ENE 19 26 10 14 1024.0 - -
30/02:50pm 14.7 10.8 8.5 66 3.1 ENE 19 26 10 14 1024.0 - -
30/02:40pm 14.7 10.5 8.3 65 3.2 ENE 20 24 11 13 1024.0 - -
30/02:30pm 14.7 11.2 8.6 67 3.1 ENE 17 22 9 12 1024.0 - -
30/02:20pm 14.7 10.7 8.4 66 3.2 ENE 19 22 10 12 1024.0 - -
30/02:10pm 14.7 11.1 8.3 65 3.2 ENE 17 22 9 12 1024.1 - -
30/02:00pm 14.8 11.5 8.2 64 3.3 ENE 15 24 8 13 1024.2 - -
30/01:50pm 14.8 11.5 8.0 64 3.4 ENE 15 19 8 10 1024.3 - -
30/01:40pm 14.9 12.3 7.9 63 3.5 ENE 11 20 6 11 1024.4 - -
30/01:30pm 14.9 12.8 8.2 64 3.4 ENE 9 17 5 9 1024.5 - -
30/01:20pm 14.9 13.5 8.8 67 3.1 ENE 6 15 3 8 1024.7 - -
30/01:10pm 15.0 14.0 8.8 66 3.2 ENE 4 9 2 5 1024.8 - -
30/01:00pm 15.3 14.3 8.9 65 3.3 ENE 4 7 2 4 1025.0 - -
30/12:50pm 15.4 14.8 8.9 65 3.3 ENE 2 7 1 4 1025.2 - -
30/12:40pm 15.8 15.2 8.9 63 3.5 ENE 2 6 1 3 1025.3 - -
30/12:30pm 15.9 15.7 9.0 63 3.5 ENE 0 2 0 1 1025.4 - -
30/12:20pm 15.4 15.2 9.0 65 3.3 ENE 0 0 0 0 1025.5 - -
30/12:10pm 15.4 15.2 8.9 65 3.3 ENE 0 0 0 0 1025.6 - -
30/12:00pm 15.5 15.3 9.0 65 3.3 NE 0 0 0 0 1025.7 - -
30/11:50am 15.5 15.3 9.0 65 3.3 NE 0 0 0 0 1025.8 - -
30/11:40am 15.6 15.4 9.2 65 3.3 NE 0 2 0 1 1026.0 - -
30/11:30am 15.7 15.5 8.9 64 3.5 NNE 0 2 0 1 1026.2 - -
30/11:20am 15.7 15.5 9.1 65 3.4 NNE 0 2 0 1 1026.4 - -
30/11:10am 15.8 15.6 9.1 64 3.4 NNE 0 2 0 1 1026.6 - -
30/11:00am 15.8 15.6 8.9 63 3.5 N 0 4 0 2 1026.8 - -
30/10:50am 15.9 15.3 8.9 63 3.6 NNE 2 4 1 2 1027.0 - -
30/10:40am 15.9 15.3 9.0 63 3.5 NNW 2 7 1 4 1027.1 - -
30/10:30am 15.8 15.2 8.8 63 3.6 N 2 6 1 3 1027.3 - -
30/10:20am 15.6 14.9 8.4 62 3.6 N 2 7 1 4 1027.4 - -
30/10:10am 15.8 15.0 8.2 60 3.8 NNE 2 4 1 2 1027.5 - -
30/09:50am 16.0 15.1 7.9 58 4.1 NNE 2 4 1 2 1027.8 - -
30/09:40am 16.0 14.8 7.9 58 4.1 NNE 4 6 2 3 1027.8 - -
30/09:30am 15.9 14.7 7.9 59 4.0 NNE 4 6 2 3 1027.9 - -
30/09:20am 15.8 14.5 7.8 59 4.0 NNE 4 6 2 3 1027.9 - -
30/09:10am 15.8 14.5 7.7 58 4.1 NNE 4 7 2 4 1028.0 - -
30/09:00am 15.7 14.0 7.5 58 4.1 NE 6 9 3 5 1028.1 - -
30/08:50am 15.8 14.1 7.6 58 4.1 NE 6 9 3 5 1028.1 - -
30/08:40am 15.6 13.9 7.6 59 4.0 NE 6 7 3 4 1028.2 - -
30/08:30am 15.5 13.5 7.3 58 4.1 NE 7 11 4 6 1028.2 - -
30/08:20am 15.5 13.6 7.4 58 4.0 NE 7 9 4 5 1028.3 - -
30/08:10am 15.4 13.7 7.6 59 3.9 NE 6 9 3 5 1028.3 - -
30/08:00am 15.4 13.1 7.4 59 4.0 NE 9 11 5 6 1028.4 - -
30/07:50am 15.3 13.3 7.3 59 4.0 NE 7 13 4 7 1028.4 - -
30/07:40am 15.3 13.4 7.4 59 3.9 NE 7 11 4 6 1028.4 - -
30/07:30am 15.2 12.8 7.2 59 3.9 NE 9 15 5 8 1028.3 - -
30/07:20am 15.0 12.6 7.2 59 3.8 NE 9 13 5 7 1028.3 - -
30/07:10am 15.0 12.6 7.2 59 3.8 NE 9 15 5 8 1028.3 - -
30/07:00am 14.8 12.5 7.3 61 3.7 NE 9 13 5 7 1028.3 - -
30/06:50am 14.7 12.7 7.3 61 3.6 NE 7 13 4 7 1028.2 - -
30/06:40am 14.6 11.8 6.9 60 3.8 NE 11 13 6 7 1028.1 - -
30/06:30am 14.4 12.0 7.0 61 3.6 NE 9 13 5 7 1028.1 - -
30/06:20am 14.2 12.4 7.2 63 3.4 NE 6 13 3 7 1028.1 - -
30/06:10am 14.0 12.2 7.0 62 3.4 NE 6 11 3 6 1028.2 - -
30/06:00am 13.8 11.8 7.1 64 3.3 NE 7 11 4 6 1028.2 - -
30/05:50am 13.6 11.6 6.9 64 3.2 NE 7 11 4 6 1028.2 - -
30/05:40am 13.5 11.5 6.9 64 3.2 NE 7 13 4 7 1028.2 - -
30/05:30am 13.5 11.0 6.6 63 3.3 NE 9 13 5 7 1028.1 - -
30/05:20am 13.5 11.4 6.8 64 3.2 NE 7 13 4 7 1028.0 - -
30/05:00am 13.6 11.2 6.8 63 3.3 NE 9 15 5 8 1028.0 - -
30/04:50am 13.6 11.2 6.9 64 3.2 NE 9 13 5 7 1028.0 - -
30/04:40am 13.6 11.1 6.6 62 3.4 ENE 9 19 5 10 1027.9 - -
30/04:30am 13.6 10.4 6.9 64 3.2 ENE 13 20 7 11 1027.8 - -
30/04:20am 13.7 10.9 6.8 63 3.3 NE 11 17 6 9 1027.8 - -
30/04:10am 13.7 10.9 6.8 63 3.3 ENE 11 17 6 9 1027.8 - -
30/04:00am 13.7 10.5 6.9 63 3.3 ENE 13 19 7 10 1027.9 - -
30/03:50am 13.6 10.7 6.7 63 3.3 ENE 11 19 6 10 1027.9 - -
30/03:40am 13.6 10.4 6.8 63 3.3 ENE 13 19 7 10 1027.9 - -
30/03:30am 13.7 10.6 7.3 65 3.1 ENE 13 20 7 11 1027.9 - -
30/03:20am 13.7 10.2 7.4 65 3.1 ENE 15 20 8 11 1027.9 - -
30/03:10am 13.7 9.8 7.3 65 3.1 ENE 17 24 9 13 1027.9 - -
30/03:00am 13.7 10.2 7.2 65 3.2 ENE 15 20 8 11 1027.9 - -
30/02:50am 13.8 10.3 7.3 65 3.2 ENE 15 19 8 10 1027.9 - -
30/02:40am 13.7 10.2 7.4 65 3.1 ENE 15 20 8 11 1027.9 - -
30/02:30am 13.7 9.9 7.7 67 3.0 E 17 20 9 11 1028.0 - -
30/02:20am 13.7 10.3 7.7 67 3.0 E 15 20 8 11 1028.0 - -
30/02:10am 13.7 10.2 7.4 65 3.1 E 15 20 8 11 1028.0 - -
30/01:50am 13.7 9.9 7.5 66 3.0 E 17 22 9 12 1028.1 - -
30/01:40am 13.8 10.0 7.6 66 3.1 E 17 20 9 11 1028.1 - -
30/01:30am 13.8 10.1 7.9 67 2.9 E 17 22 9 12 1028.2 - -
30/01:20am 13.9 10.6 8.1 68 2.9 E 15 20 8 11 1028.3 - -
30/01:10am 13.9 10.1 7.7 66 3.1 E 17 20 9 11 1028.3 - -
30/01:00am 13.9 10.2 7.8 66 3.0 E 17 24 9 13 1028.3 - -
30/12:50am 13.9 9.8 7.9 67 3.0 E 19 22 10 12 1028.3 - -
30/12:40am 14.0 10.0 8.1 67 2.9 E 19 24 10 13 1028.4 - -
30/12:30am 14.0 10.3 7.8 66 3.1 E 17 22 9 12 1028.5 - -
30/12:20am 14.0 10.2 7.7 66 3.1 E 17 22 9 12 1028.6 - -
30/12:10am 14.1 10.1 8.1 67 3.0 E 19 22 10 12 1028.6 - -
30/12:00am 14.1 10.5 8.2 67 2.9 E 17 20 9 11 1028.7 - -
 
Date/Time
EST
Temp
°C
App
Temp
°C
Dew
Point
Rel
Hum
%
Delta-T
°C
Wind Press
QNH
hPa
Press
MSL
hPa
Rain
since 9 am
mm
Dir
 
Spd
km/h
Gust
km/h
Spd
kts
Gust
kts
29/11:50pm 14.1 10.4 8.0 66 3.0 E 17 22 9 12 1028.7 - -
29/11:40pm 14.1 10.4 8.1 67 3.0 E 17 20 9 11 1028.8 - -
29/11:30pm 14.2 10.9 8.1 66 3.0 E 15 19 8 10 1028.9 - -
29/11:20pm 14.2 10.2 8.2 67 3.0 E 19 22 10 12 1028.9 - -
29/11:10pm 14.3 10.7 8.2 67 3.1 E 17 19 9 10 1028.9 - -
29/10:50pm 14.2 10.3 8.6 69 2.8 E 19 22 10 12 1029.0 - -
29/10:40pm 14.3 10.5 8.9 70 2.7 E 19 24 10 13 1029.0 - -
29/10:30pm 14.4 10.9 8.8 69 2.8 E 17 22 9 12 1029.0 - -
29/10:20pm 14.4 10.8 8.5 67 3.0 E 17 19 9 10 1028.9 - -
29/10:10pm 14.5 11.3 8.6 67 3.0 ENE 15 20 8 11 1028.9 - -
29/10:00pm 14.6 11.4 8.4 66 3.1 ENE 15 20 8 11 1028.9 - -
29/09:50pm 14.6 11.0 8.5 67 3.1 ENE 17 20 9 11 1029.0 - -
29/09:40pm 14.4 10.8 8.5 67 3.0 ENE 17 22 9 12 1029.1 - -
29/09:30pm 14.5 10.4 8.6 67 3.0 ENE 20 22 11 12 1029.1 - -
29/09:20pm 14.5 10.6 8.8 68 2.9 ENE 19 22 10 12 1029.1 - -
29/09:10pm 14.5 10.6 8.8 68 2.9 ENE 19 22 10 12 1029.0 - -
29/09:00pm 14.6 10.8 9.1 69 2.8 ENE 19 22 10 12 1029.0 - -
29/08:50pm 14.6 10.8 9.1 69 2.8 ENE 19 22 10 12 1029.0 - -
29/08:40pm 14.6 10.8 9.0 69 2.9 ENE 19 22 10 12 1029.0 - -
29/08:30pm 14.6 10.8 9.1 69 2.8 ENE 19 22 10 12 1028.9 - -
29/08:20pm 14.7 10.8 9.3 70 2.8 ENE 20 24 11 13 1028.8 - -
29/08:10pm 14.7 11.4 9.4 70 2.7 ENE 17 24 9 13 1028.8 - -
29/08:00pm 14.6 10.9 9.5 71 2.6 ENE 19 22 10 12 1028.8 - -
29/07:50pm 14.7 10.8 9.5 71 2.7 ENE 20 22 11 12 1028.8 - -
29/07:40pm 14.7 11.0 9.4 70 2.7 ENE 19 22 10 12 1028.8 - -
29/07:30pm 14.7 11.0 9.4 70 2.7 ENE 19 22 10 12 1028.8 - -
29/07:20pm 14.7 11.0 9.6 71 2.6 ENE 19 24 10 13 1028.7 - -
29/07:10pm 14.7 10.9 9.9 73 2.5 ENE 20 26 11 14 1028.6 - -
29/07:00pm 14.5 11.9 10.7 78 2.0 ENE 15 22 8 12 1028.6 - -
29/06:50pm 14.4 13.5 11.4 82 1.6 ENE 7 15 4 8 1028.6 - -
29/06:40pm 14.3 13.6 11.5 83 1.5 E 6 11 3 6 1028.6 - -
29/06:30pm 14.2 13.6 11.6 84 1.4 E 6 9 3 5 1028.6 - -
29/06:10pm 14.1 13.5 11.6 85 1.3 E 6 7 3 4 1028.6 - -
29/06:00pm 14.0 13.4 11.7 86 1.2 E 6 9 3 5 1028.6 - -
29/05:50pm 13.9 13.3 11.8 87 1.1 E 6 11 3 6 1028.6 - -
29/05:40pm 13.9 13.7 11.8 87 1.1 E 4 11 2 6 1028.5 - -
29/05:30pm 13.9 13.7 11.9 88 1.1 E 4 9 2 5 1028.4 - -
29/05:20pm 13.8 14.0 11.9 88 1.0 E 2 9 1 5 1028.3 - -
29/05:10pm 13.8 14.0 11.9 88 1.0 ESE 2 9 1 5 1028.3 - -
29/05:00pm 13.8 14.0 11.9 88 1.0 ESE 2 11 1 6 1028.3 - -
29/04:50pm 13.8 13.6 11.9 88 1.0 SSE 4 7 2 4 1028.3 - -
29/04:40pm 13.7 13.5 11.8 88 1.0 SSE 4 9 2 5 1028.3 - -
29/04:30pm 13.7 13.5 11.7 88 1.1 SSE 4 7 2 4 1028.3 - -
29/04:20pm 13.6 13.8 11.7 88 1.0 SSE 2 7 1 4 1028.2 - -
29/04:10pm 13.6 13.3 11.6 88 1.1 SSE 4 9 2 5 1028.3 - -
29/04:00pm 13.5 12.8 11.5 88 1.1 SSE 6 9 3 5 1028.2 - -
29/03:50pm 13.5 13.2 11.4 87 1.1 SSE 4 11 2 6 1028.2 - -
29/03:40pm 13.5 13.2 11.3 86 1.2 SSE 4 7 2 4 1028.1 - -
29/03:30pm 13.4 13.0 11.1 86 1.2 SSE 4 9 2 5 1028.1 - -
29/03:20pm 13.4 13.4 11.0 85 1.3 SSE 2 7 1 4 1028.1 - -
29/03:10pm 13.4 12.9 10.9 85 1.3 SSE 4 9 2 5 1028.1 - -
29/03:00pm 13.3 13.2 10.7 84 1.4 SSE 2 7 1 4 1028.0 - -
29/02:50pm 13.3 13.5 10.6 84 1.4 SE 0 6 0 3 1027.9 - -
29/02:40pm 13.3 13.5 10.4 82 1.5 SE 0 2 0 1 1027.9 - -
29/02:30pm 13.5 13.6 10.3 81 1.7 ESE 0 0 0 0 1027.8 - -
29/02:20pm 13.7 13.8 10.3 80 1.8 E 0 4 0 2 1027.8 - -
29/02:10pm 13.7 13.9 10.4 80 1.7 ENE 0 2 0 1 1027.8 - -
29/02:00pm 13.8 14.0 10.5 80 1.7 ENE 0 4 0 2 1027.9 - -
29/01:50pm 13.9 14.1 10.5 80 1.8 ENE 0 2 0 1 1028.0 - -
29/01:40pm 13.9 14.1 10.5 80 1.8 ENE 0 0 0 0 1028.1 - -
29/01:30pm 13.8 14.0 10.5 80 1.7 ENE 0 2 0 1 1028.2 - -
29/01:20pm 13.8 14.0 10.5 80 1.7 NE 0 4 0 2 1028.2 - -
29/01:10pm 13.9 14.1 10.5 80 1.8 ENE 0 2 0 1 1028.2 - -
29/01:00pm 13.9 14.1 10.5 80 1.8 NNE 0 0 0 0 1028.2 - -
29/12:50pm 13.9 14.1 10.5 80 1.8 NNE 0 2 0 1 1028.3 - -
29/12:40pm 13.8 14.0 10.5 80 1.7 NNE 0 2 0 1 1028.3 - -
29/12:30pm 13.8 14.0 10.5 80 1.7 NNE 0 2 0 1 1028.4 - -
29/12:20pm 13.8 14.0 10.5 80 1.7 N 0 4 0 2 1028.3 - -
29/12:10pm 13.9 14.1 10.5 80 1.8 NNE 0 4 0 2 1028.4 - -
29/12:00pm 14.1 14.0 10.8 80 1.7 NNW 2 7 1 4 1028.5 - -
29/11:50am 13.9 13.7 10.6 80 1.7 NNW 2 6 1 3 1028.5 - -
29/11:40am 14.0 14.2 10.6 80 1.8 N 0 6 0 3 1028.6 - -
29/11:30am 13.9 13.7 10.5 80 1.8 N 2 6 1 3 1028.6 - -
29/11:20am 14.0 13.8 10.6 80 1.8 - 2 6 1 3 1028.7 - -
29/11:10am 14.0 13.8 10.6 80 1.8 NNW 2 6 1 3 1028.9 - -
29/11:00am 14.0 13.8 10.5 79 1.8 N 2 6 1 3 1028.9 - -
29/10:50am 14.1 13.9 10.5 79 1.9 N 2 6 1 3 1029.1 - -
29/10:40am 14.1 13.9 10.6 79 1.8 N 2 9 1 5 1029.1 - -
29/10:30am 14.1 13.9 10.5 79 1.9 NNW 2 7 1 4 1029.2 - -
29/10:20am 14.2 14.0 10.6 79 1.9 NNE 2 6 1 3 1029.3 - -
29/10:10am 14.4 13.9 10.9 79 1.9 NNW 4 6 2 3 1029.3 - -
29/10:00am 14.1 13.6 10.7 80 1.8 NNW 4 7 2 4 1029.4 - -
29/09:50am 14.1 13.6 10.6 79 1.8 N 4 7 2 4 1029.4 - -
29/09:40am 14.3 13.8 10.7 79 1.9 NNW 4 7 2 4 1029.3 - -
29/09:20am 14.2 13.4 11.0 81 1.7 NNW 6 9 3 5 1029.3 - -
29/09:10am 14.0 13.1 10.6 80 1.8 NNW 6 9 3 5 1029.3 - -
29/09:00am 14.5 13.5 11.0 79 1.9 N 7 11 4 6 1029.2 - -
29/08:50am 14.6 13.7 11.3 80 1.8 NNW 7 11 4 6 1029.2 - -
29/08:40am 14.4 13.4 11.1 80 1.8 N 7 11 4 6 1029.1 - -
29/08:30am 14.5 13.7 11.2 80 1.8 N 6 11 3 6 1029.1 - -
29/08:20am 14.5 13.5 11.1 80 1.8 NNE 7 11 4 6 1029.1 - -
29/08:10am 14.7 13.4 11.2 79 1.9 N 9 11 5 6 1029.1 - -
29/08:00am 14.9 14.0 11.4 79 1.9 N 7 11 4 6 1029.0 - -
29/07:50am 14.9 14.2 11.4 79 1.9 N 6 9 3 5 1029.0 - -
29/07:40am 15.1 14.8 11.5 79 1.9 N 4 9 2 5 1029.0 - -
29/07:30am 15.2 14.9 11.6 79 1.9 NNE 4 6 2 3 1029.0 - -
29/07:20am 15.2 14.9 11.6 79 1.9 NNE 4 6 2 3 1028.9 - -
29/07:00am 15.0 15.2 11.7 80 1.8 NNE 2 6 1 3 1028.8 - -
29/06:50am 14.8 14.9 11.6 81 1.7 NNE 2 6 1 3 1028.7 - -
29/06:40am 14.7 14.4 11.4 80 1.8 NNE 4 6 2 3 1028.5 - -
29/06:30am 14.8 14.1 11.3 79 1.9 NNE 6 9 3 5 1028.4 - -
29/06:20am 14.6 13.6 10.9 78 2.0 NNE 7 11 4 6 1028.3 - -
29/06:10am 14.5 13.0 10.6 77 2.1 NNE 9 13 5 7 1028.2 - -
29/06:00am 14.3 12.3 10.2 76 2.1 NE 11 13 6 7 1028.1 - -
29/05:50am 14.3 12.3 10.1 76 2.2 NE 11 13 6 7 1028.1 - -
29/05:30am 14.2 12.6 10.1 76 2.1 NE 9 13 5 7 1028.0 - -
29/05:10am 14.3 12.7 10.1 76 2.2 NE 9 13 5 7 1027.9 - -
29/05:00am 14.3 12.3 10.1 76 2.2 NE 11 15 6 8 1027.9 - -
29/04:50am 14.4 12.4 10.2 76 2.2 NE 11 13 6 7 1027.8 - -
29/04:40am 14.4 12.4 10.3 76 2.1 NE 11 13 6 7 1027.7 - -
29/04:30am 14.4 12.4 10.2 76 2.2 NE 11 13 6 7 1027.7 - -
29/04:20am 14.3 12.7 10.1 76 2.2 NE 9 11 5 6 1027.7 - -
29/04:10am 14.4 12.8 10.1 75 2.2 NE 9 13 5 7 1027.6 - -
29/04:00am 14.4 12.7 10.0 75 2.3 NE 9 13 5 7 1027.5 - -
29/03:40am 14.5 12.4 9.9 74 2.4 NE 11 15 6 8 1027.5 - -
29/03:30am 14.4 12.7 9.7 73 2.4 NE 9 13 5 7 1027.5 - -
29/03:20am 14.4 13.0 9.7 73 2.4 NE 7 9 4 5 1027.6 - -
29/03:10am 14.4 13.0 9.7 73 2.4 NE 7 11 4 6 1027.6 - -
29/03:00am 14.5 12.7 9.6 72 2.5 NE 9 13 5 7 1027.5 - -
29/02:50am 14.5 12.7 9.6 72 2.5 NE 9 13 5 7 1027.4 - -
29/02:40am 14.5 12.4 9.6 72 2.5 NE 11 15 6 8 1027.3 - -
29/02:30am 14.5 12.4 9.6 72 2.5 NE 11 13 6 7 1027.2 - -
29/02:20am 14.4 12.3 9.8 74 2.4 NE 11 13 6 7 1027.2 - -
29/02:10am 14.4 12.3 9.9 74 2.3 NE 11 13 6 7 1027.3 - -
29/02:00am 14.4 12.7 9.8 74 2.4 NE 9 11 5 6 1027.4 - -
29/01:50am 14.5 12.8 10.0 74 2.3 NE 9 11 5 6 1027.4 - -
29/01:40am 14.5 12.8 10.0 74 2.3 NE 9 11 5 6 1027.4 - -
29/01:20am 14.5 12.8 10.0 74 2.3 NE 9 13 5 7 1027.6 - -
29/01:10am 14.5 12.8 10.0 74 2.3 NE 9 13 5 7 1027.6 - -
29/01:00am 14.5 12.4 9.9 74 2.4 NE 11 13 6 7 1027.7 - -
29/12:50am 14.6 12.5 9.9 73 2.4 NE 11 13 6 7 1027.8 - -
29/12:40am 14.6 12.5 9.8 73 2.5 NE 11 15 6 8 1027.9 - -
29/12:30am 14.6 12.5 9.6 72 2.6 NE 11 13 6 7 1028.0 - -
29/12:20am 14.7 12.6 9.8 72 2.5 NE 11 13 6 7 1028.1 - -
29/12:10am 14.7 12.7 10.0 73 2.4 NE 11 13 6 7 1028.1 - -
 
Date/Time
EST
Temp
°C
App
Temp
°C
Dew
Point
Rel
Hum
%
Delta-T
°C
Wind Press
QNH
hPa
Press
MSL
hPa
Rain
since 9 am
mm
Dir
 
Spd
km/h
Gust
km/h
Spd
kts
Gust
kts
28/11:50pm 14.7 12.7 10.1 74 2.4 NE 11 15 6 8 1028.1 - -
28/11:40pm 14.7 12.0 10.2 74 2.4 NE 15 17 8 9 1028.0 - -
28/11:30pm 14.7 12.4 10.3 75 2.3 NE 13 15 7 8 1028.1 - -
28/11:20pm 14.6 12.6 10.1 74 2.3 NE 11 15 6 8 1028.2 - -
28/11:10pm 14.5 12.1 10.1 75 2.3 NE 13 15 7 8 1028.2 - -
28/11:00pm 14.6 12.3 10.4 76 2.2 NE 13 17 7 9 1028.2 - -
28/10:50pm 14.6 12.3 10.5 76 2.2 NE 13 15 7 8 1028.3 - -
28/10:40pm 14.6 12.3 10.6 77 2.1 NE 13 15 7 8 1028.3 - -
28/10:30pm 14.7 12.9 10.8 77 2.1 NE 11 13 6 7 1028.2 - -
28/10:20pm 14.8 13.0 10.7 76 2.2 NE 11 15 6 8 1028.3 - -
28/10:10pm 14.8 12.5 10.6 76 2.2 NE 13 15 7 8 1028.3 - -
28/10:00pm 14.8 12.2 10.6 76 2.2 NE 15 17 8 9 1028.3 - -
28/09:50pm 14.8 12.1 10.5 75 2.3 NE 15 17 8 9 1028.2 - -
28/09:40pm 14.8 12.5 10.3 74 2.4 NE 13 15 7 8 1028.3 - -
28/09:30pm 14.9 12.9 10.2 73 2.5 NE 11 13 6 7 1028.4 - -
28/09:20pm 15.0 13.0 10.2 73 2.5 NE 11 13 6 7 1028.4 - -
28/09:00pm 14.9 12.4 9.8 71 2.6 NE 13 17 7 9 1028.5 - -
28/08:50pm 14.9 12.3 9.5 70 2.8 NE 13 15 7 8 1028.6 - -
28/08:40pm 14.8 12.6 9.3 69 2.8 NE 11 15 6 8 1028.6 - -
28/08:30pm 14.9 13.4 9.3 69 2.9 NE 7 11 4 6 1028.7 - -
28/08:20pm 14.8 13.5 9.1 68 2.9 NE 6 9 3 5 1028.7 - -
28/08:10pm 14.8 13.2 8.9 68 3.0 NE 7 11 4 6 1028.7 - -
28/08:00pm 14.8 13.2 8.7 67 3.1 NE 7 11 4 6 1028.7 - -
28/07:50pm 14.8 13.1 8.5 66 3.2 NE 7 11 4 6 1028.7 - -
28/07:40pm 14.8 13.1 8.5 66 3.2 NE 7 9 4 5 1028.8 - -
28/07:30pm 14.7 12.7 8.5 66 3.1 NE 9 13 5 7 1028.7 - -
28/07:20pm 14.7 13.1 8.6 67 3.1 NE 7 13 4 7 1028.8 - -
28/07:10pm 14.7 13.0 8.5 66 3.1 ENE 7 11 4 6 1028.7 - -
28/07:00pm 14.7 12.7 8.5 66 3.1 ENE 9 15 5 8 1028.6 - -
28/06:50pm 14.7 12.7 8.6 67 3.1 ENE 9 15 5 8 1028.6 - -
28/06:40pm 14.7 12.6 8.1 64 3.3 ENE 9 13 5 7 1028.5 - -
28/06:30pm 14.7 12.2 8.1 64 3.3 ENE 11 19 6 10 1028.5 - -
28/06:20pm 14.7 12.2 8.0 64 3.3 ENE 11 17 6 9 1028.3 - -
28/06:10pm 14.6 11.6 7.9 64 3.3 ENE 13 17 7 9 1028.3 - -
28/06:00pm 14.6 11.7 8.0 64 3.3 ENE 13 17 7 9 1028.3 - -
28/05:50pm 14.6 11.2 7.8 63 3.4 ENE 15 17 8 9 1028.2 - -
28/05:40pm 14.6 11.3 7.9 64 3.3 ENE 15 19 8 10 1028.2 - -
28/05:30pm 14.6 11.2 7.7 63 3.4 ENE 15 17 8 9 1028.1 - -
28/05:20pm 14.6 11.2 7.6 63 3.5 ENE 15 17 8 9 1028.1 - -
28/05:10pm 14.6 11.6 7.5 62 3.5 ENE 13 15 7 8 1028.1 - -
28/05:00pm 14.6 11.5 7.4 62 3.6 ENE 13 15 7 8 1028.0 - -
28/04:50pm 14.6 11.6 7.5 62 3.5 ENE 13 15 7 8 1027.9 - -
28/04:30pm 14.6 11.6 7.5 62 3.5 ENE 13 17 7 9 1027.8 - -
28/04:20pm 14.6 11.6 7.7 63 3.4 ENE 13 17 7 9 1027.8 - -
28/04:10pm 14.5 11.5 7.8 64 3.3 ENE 13 17 7 9 1027.8 - -

Other Formats:

Comma delimited format used in spreadsheet applications
http://www.bom.gov.au/fwo/IDV60801/IDV60801.55039.axf

JavaScript Object Notation format (JSON) in row-major order
http://www.bom.gov.au/fwo/IDV60801/IDV60801.55039.json